createdAt,value
2023-05-23T00:00:24.653Z,99.99
2023-05-23T00:01:24.648Z,99.99
2023-05-23T00:02:24.741Z,99.99
2023-05-23T00:03:24.731Z,99.99
2023-05-23T00:04:24.864Z,99.99
2023-05-23T00:05:24.597Z,99.99
2023-05-23T00:06:24.593Z,99.99
2023-05-23T00:07:24.575Z,99.99
2023-05-23T00:08:24.561Z,99.99
2023-05-23T00:09:24.562Z,99.99
2023-05-23T00:10:24.546Z,99.99
2023-05-23T00:11:24.527Z,99.99
2023-05-23T00:12:24.532Z,99.99
2023-05-23T00:13:24.513Z,99.99
2023-05-23T00:14:24.502Z,99.99
2023-05-23T00:15:24.484Z,99.99
2023-05-23T00:16:24.482Z,99.99
2023-05-23T00:17:24.478Z,99.99
2023-05-23T00:18:24.451Z,99.99
2023-05-23T00:19:24.511Z,99.99
2023-05-23T00:20:24.554Z,99.99
2023-05-23T00:21:24.421Z,99.99
2023-05-23T00:22:24.404Z,99.99
2023-05-23T00:23:24.394Z,99.99
2023-05-23T00:24:24.380Z,99.99
2023-05-23T00:25:24.377Z,99.99
2023-05-23T00:26:24.365Z,99.99
2023-05-23T00:27:24.352Z,99.99
2023-05-23T00:28:24.339Z,99.99
2023-05-23T00:29:24.330Z,99.99
2023-05-23T00:30:24.316Z,99.99
2023-05-23T00:31:24.330Z,99.99
2023-05-23T00:32:24.356Z,99.99
2023-05-23T00:33:24.298Z,99.99
2023-05-23T00:34:24.272Z,99.99
2023-05-23T00:35:24.263Z,99.99
2023-05-23T00:36:24.374Z,99.99
2023-05-23T00:37:24.238Z,99.99
2023-05-23T00:38:24.225Z,99.99
2023-05-23T00:39:24.218Z,99.99
2023-05-23T00:40:24.203Z,99.99
2023-05-23T00:41:24.194Z,99.99
2023-05-23T00:42:24.181Z,99.99
2023-05-23T00:43:24.170Z,99.99
2023-05-23T00:44:24.171Z,99.99
2023-05-23T00:45:24.155Z,99.99
2023-05-23T00:46:24.167Z,99.99
2023-05-23T00:47:24.153Z,99.99
2023-05-23T00:48:24.115Z,99.99
2023-05-23T00:49:24.129Z,99.99
2023-05-23T00:50:24.094Z,99.99
2023-05-23T00:51:24.084Z,99.99
2023-05-23T00:52:24.201Z,99.99
2023-05-23T00:53:24.062Z,99.99
2023-05-23T00:54:24.053Z,99.99
2023-05-23T00:55:24.039Z,99.99
2023-05-23T00:56:24.024Z,99.99
2023-05-23T00:57:24.024Z,99.99
2023-05-23T00:58:24.005Z,99.99
2023-05-23T00:59:23.997Z,99.99
2023-05-23T01:00:23.981Z,99.99
2023-05-23T01:01:24.016Z,99.99
2023-05-23T01:02:23.994Z,99.99
2023-05-23T01:03:24.180Z,99.99
2023-05-23T01:04:23.936Z,99.99
2023-05-23T01:05:23.925Z,99.99
2023-05-23T01:06:23.919Z,99.99
2023-05-23T01:07:23.908Z,99.99
2023-05-23T01:08:24.007Z,99.99
2023-05-23T01:09:23.882Z,99.99
2023-05-23T01:10:23.903Z,99.99
2023-05-23T01:11:23.861Z,99.99
2023-05-23T01:12:23.845Z,99.99
2023-05-23T01:13:23.846Z,99.99
2023-05-23T01:14:23.822Z,99.99
2023-05-23T01:15:23.811Z,99.99
2023-05-23T01:16:23.832Z,99.99
2023-05-23T01:17:23.805Z,99.99
2023-05-23T01:18:23.785Z,99.99
2023-05-23T01:19:23.797Z,99.99
2023-05-23T01:20:23.793Z,99.99
2023-05-23T01:21:23.741Z,99.99
2023-05-23T01:22:23.729Z,99.99
2023-05-23T01:23:23.732Z,99.99
2023-05-23T01:24:23.825Z,99.99
2023-05-23T01:25:23.699Z,99.99
2023-05-23T01:26:23.684Z,99.99
2023-05-23T01:27:23.704Z,99.99
2023-05-23T01:28:23.663Z,99.99
2023-05-23T01:29:23.654Z,99.99
2023-05-23T01:30:23.645Z,99.99
2023-05-23T01:31:23.681Z,99.99
2023-05-23T01:32:23.675Z,99.99
2023-05-23T01:33:23.620Z,99.99
2023-05-23T01:34:23.595Z,99.99
2023-05-23T01:35:23.588Z,99.99
2023-05-23T01:36:23.573Z,99.99
2023-05-23T01:37:23.569Z,99.99
2023-05-23T01:38:23.554Z,99.99
2023-05-23T01:39:23.550Z,99.99
2023-05-23T01:40:23.654Z,99.99
2023-05-23T01:41:23.520Z,99.99
2023-05-23T01:42:23.520Z,99.99
2023-05-23T01:43:23.498Z,99.99
2023-05-23T01:44:23.495Z,99.99
2023-05-23T01:45:23.487Z,99.99
2023-05-23T01:46:23.594Z,99.99
2023-05-23T01:47:23.539Z,99.99
2023-05-23T01:48:23.443Z,99.99
2023-05-23T01:49:23.432Z,99.99
2023-05-23T01:50:23.429Z,99.99
2023-05-23T01:51:23.409Z,99.99
2023-05-23T01:52:23.407Z,99.99
2023-05-23T01:53:23.395Z,99.99
2023-05-23T01:54:23.374Z,99.99
2023-05-23T01:55:23.367Z,99.99
2023-05-23T01:56:23.478Z,99.99
2023-05-23T01:57:23.344Z,99.99
2023-05-23T01:58:23.328Z,99.99
2023-05-23T01:59:23.319Z,99.99
2023-05-23T02:00:23.334Z,99.99
2023-05-23T02:01:23.350Z,99.99
2023-05-23T02:02:23.383Z,99.99
2023-05-23T02:03:23.370Z,99.99
2023-05-23T02:04:23.284Z,99.99
2023-05-23T02:05:23.258Z,99.99
2023-05-23T02:06:23.240Z,99.99
2023-05-23T02:07:23.266Z,99.99
2023-05-23T02:08:23.217Z,99.99
2023-05-23T02:09:23.211Z,99.99
2023-05-23T02:10:23.232Z,99.99
2023-05-23T02:11:23.191Z,99.99
2023-05-23T02:12:23.295Z,99.99
2023-05-23T02:13:23.180Z,99.99
2023-05-23T02:14:23.181Z,99.99
2023-05-23T02:15:23.144Z,99.99
2023-05-23T02:16:23.186Z,99.99
2023-05-23T02:17:23.193Z,99.99
2023-05-23T02:18:23.113Z,99.99
2023-05-23T02:19:23.225Z,99.99
2023-05-23T02:20:23.092Z,99.99
2023-05-23T02:21:23.086Z,99.99
2023-05-23T02:22:23.065Z,99.99
2023-05-23T02:23:23.060Z,99.99
2023-05-23T02:24:23.039Z,99.99
2023-05-23T02:25:23.029Z,99.99
2023-05-23T02:26:23.020Z,99.99
2023-05-23T02:27:23.099Z,99.99
2023-05-23T02:28:23.131Z,99.99
2023-05-23T02:29:23.012Z,99.99
2023-05-23T02:30:22.972Z,99.99
2023-05-23T02:31:23.026Z,99.99
2023-05-23T02:32:22.971Z,99.99
2023-05-23T02:33:22.939Z,99.99
2023-05-23T02:34:22.928Z,99.99
2023-05-23T02:35:22.922Z,99.99
2023-05-23T02:36:22.904Z,99.99
2023-05-23T02:37:22.891Z,99.99
2023-05-23T02:38:22.893Z,99.99
2023-05-23T02:39:22.876Z,99.99
2023-05-23T02:40:22.857Z,99.96
2023-05-23T02:41:22.853Z,99.99
2023-05-23T02:42:22.849Z,99.99
2023-05-23T02:43:22.832Z,99.25
2023-05-23T02:44:22.843Z,99.66
2023-05-23T02:45:22.806Z,98.74
2023-05-23T02:46:22.928Z,97.94
2023-05-23T02:47:22.846Z,96.51
2023-05-23T02:48:22.764Z,96.42
2023-05-23T02:49:22.762Z,95.50
2023-05-23T02:50:22.745Z,95.91
2023-05-23T02:51:22.734Z,95.81
2023-05-23T02:52:22.721Z,94.79
2023-05-23T02:53:22.729Z,90.75
2023-05-23T02:54:22.696Z,89.53
2023-05-23T02:55:22.720Z,85.17
2023-05-23T02:56:22.677Z,82.14
2023-05-23T02:57:22.684Z,78.08
2023-05-23T02:58:22.653Z,74.33
2023-05-23T02:59:22.650Z,71.09
2023-05-23T03:00:22.747Z,70.21
2023-05-23T03:01:22.686Z,0.00
2023-05-23T03:02:22.739Z,65.76
2023-05-23T03:03:22.747Z,66.27
2023-05-23T03:04:22.637Z,65.25
2023-05-23T03:05:22.610Z,65.45
2023-05-23T03:06:22.646Z,63.46
2023-05-23T03:07:28.127Z,57.96
2023-05-23T03:08:23.610Z,58.16
2023-05-23T03:09:22.574Z,57.96
2023-05-23T03:10:22.550Z,57.45
2023-05-23T03:11:22.540Z,55.73
2023-05-23T03:12:22.531Z,57.65
2023-05-23T03:13:22.513Z,58.09
2023-05-23T03:14:22.502Z,58.29
2023-05-23T03:15:22.502Z,54.74
2023-05-23T03:16:22.626Z,55.55
2023-05-23T03:17:22.561Z,54.03
2023-05-23T03:18:22.458Z,52.81
2023-05-23T03:19:22.643Z,53.32
2023-05-23T03:20:22.440Z,52.92
2023-05-23T03:21:22.424Z,53.32
2023-05-23T03:22:22.409Z,53.52
2023-05-23T03:23:22.397Z,54.53
2023-05-23T03:24:22.407Z,55.85
2023-05-23T03:25:22.379Z,51.39
2023-05-23T03:26:22.383Z,52.71
2023-05-23T03:27:22.354Z,51.50
2023-05-23T03:28:22.346Z,50.18
2023-05-23T03:29:22.333Z,50.99
2023-05-23T03:30:22.325Z,48.46
2023-05-23T03:31:22.360Z,50.08
2023-05-23T03:32:22.444Z,51.29
2023-05-23T03:33:22.287Z,50.28
2023-05-23T03:34:22.277Z,49.98
2023-05-23T03:35:22.264Z,49.57
2023-05-23T03:36:22.256Z,54.44
2023-05-23T03:37:22.248Z,53.25
2023-05-23T03:38:22.227Z,49.27
2023-05-23T03:39:22.218Z,50.68
2023-05-23T03:40:22.215Z,51.72
2023-05-23T03:41:22.195Z,50.59
2023-05-23T03:42:22.190Z,49.57
2023-05-23T03:43:22.174Z,52.94
2023-05-23T03:44:22.162Z,52.33
2023-05-23T03:45:22.148Z,51.82
2023-05-23T03:46:22.199Z,50.00
2023-05-23T03:47:22.208Z,49.69
2023-05-23T03:48:22.267Z,48.88
2023-05-23T03:49:22.115Z,46.86
2023-05-23T03:50:22.097Z,45.03
2023-05-23T03:51:22.093Z,46.95
2023-05-23T03:52:22.086Z,45.54
2023-05-23T03:53:22.113Z,43.20
2023-05-23T03:54:22.144Z,44.42
2023-05-23T03:55:22.165Z,44.12
2023-05-23T03:56:22.178Z,43.71
2023-05-23T03:57:22.152Z,44.82
2023-05-23T03:58:22.189Z,41.99
2023-05-23T03:59:22.066Z,39.55
2023-05-23T04:00:22.137Z,39.25
2023-05-23T04:01:22.024Z,37.32
2023-05-23T04:02:22.066Z,36.71
2023-05-23T04:03:22.127Z,36.61
2023-05-23T04:04:22.082Z,34.28
2023-05-23T04:05:21.936Z,33.57
2023-05-23T04:06:21.925Z,34.70
2023-05-23T04:07:21.919Z,34.39
2023-05-23T04:08:21.925Z,30.64
2023-05-23T04:09:21.892Z,30.44
2023-05-23T04:10:21.878Z,31.25
2023-05-23T04:11:21.872Z,31.76
2023-05-23T04:12:21.861Z,31.76
2023-05-23T04:13:21.846Z,28.51
2023-05-23T04:14:21.834Z,28.61
2023-05-23T04:15:21.864Z,28.81
2023-05-23T04:16:21.869Z,27.39
2023-05-23T04:17:21.855Z,28.51
2023-05-23T04:18:21.787Z,29.63
2023-05-23T04:19:21.806Z,28.52
2023-05-23T04:20:21.908Z,27.51
2023-05-23T04:21:21.742Z,27.39
2023-05-23T04:22:21.722Z,27.00
2023-05-23T04:23:21.711Z,26.19
2023-05-23T04:24:21.716Z,26.50
2023-05-23T04:25:21.679Z,26.38
2023-05-23T04:26:21.662Z,26.58
2023-05-23T04:27:21.651Z,24.96
2023-05-23T04:28:21.642Z,25.16
2023-05-23T04:29:21.631Z,27.39
2023-05-23T04:30:21.620Z,26.99
2023-05-23T04:31:21.663Z,24.55
2023-05-23T04:32:21.620Z,24.45
2023-05-23T04:33:21.589Z,25.16
2023-05-23T04:34:21.579Z,28.81
2023-05-23T04:35:21.562Z,25.37
2023-05-23T04:36:21.683Z,25.06
2023-05-23T04:37:21.570Z,25.99
2023-05-23T04:38:21.536Z,24.26
2023-05-23T04:39:21.520Z,23.94
2023-05-23T04:40:21.527Z,24.35
2023-05-23T04:41:21.513Z,23.96
2023-05-23T04:42:21.488Z,24.05
2023-05-23T04:43:21.475Z,22.94
2023-05-23T04:44:21.467Z,23.55
2023-05-23T04:45:21.453Z,25.58
2023-05-23T04:46:21.454Z,24.36
2023-05-23T04:47:21.430Z,22.84
2023-05-23T04:48:21.431Z,25.58
2023-05-23T04:49:21.407Z,24.05
2023-05-23T04:50:21.398Z,26.39
2023-05-23T04:51:21.389Z,24.26
2023-05-23T04:52:21.496Z,23.24
2023-05-23T04:53:21.361Z,24.36
2023-05-23T04:54:21.350Z,21.31
2023-05-23T04:55:21.344Z,23.24
2023-05-23T04:56:21.986Z,23.04
2023-05-23T04:57:21.333Z,22.33
2023-05-23T04:58:21.481Z,22.23
2023-05-23T04:59:21.296Z,24.98
2023-05-23T05:00:21.289Z,20.21
2023-05-23T05:01:23.632Z,25.59
2023-05-23T05:02:21.276Z,23.25
2023-05-23T05:03:21.255Z,23.76
2023-05-23T05:04:21.331Z,22.85
2023-05-23T05:05:21.238Z,23.56
2023-05-23T05:06:21.220Z,21.73
2023-05-23T05:07:21.210Z,22.24
2023-05-23T05:08:21.312Z,22.44
2023-05-23T05:09:21.180Z,20.92
2023-05-23T05:10:21.165Z,21.02
2023-05-23T05:11:21.156Z,23.68
2023-05-23T05:12:21.149Z,23.88
2023-05-23T05:13:21.159Z,23.07
2023-05-23T05:14:21.128Z,23.07
2023-05-23T05:15:21.115Z,22.96
2023-05-23T05:16:21.157Z,22.96
2023-05-23T05:17:21.106Z,23.47
2023-05-23T05:18:21.076Z,21.54
2023-05-23T05:19:21.108Z,22.45
2023-05-23T05:20:21.057Z,22.15
2023-05-23T05:21:21.047Z,22.66
2023-05-23T05:22:21.051Z,22.87
2023-05-23T05:23:21.019Z,21.84
2023-05-23T05:24:21.173Z,22.16
2023-05-23T05:25:20.995Z,21.86
2023-05-23T05:26:20.993Z,20.23
2023-05-23T05:27:20.974Z,21.13
2023-05-23T05:28:20.965Z,19.72
2023-05-23T05:29:20.950Z,19.82
2023-05-23T05:30:20.941Z,23.07
2023-05-23T05:31:20.968Z,18.50
2023-05-23T05:32:20.944Z,20.03
2023-05-23T05:33:20.901Z,17.69
2023-05-23T05:34:20.895Z,19.62
2023-05-23T05:35:20.884Z,20.12
2023-05-23T05:36:20.872Z,21.34
2023-05-23T05:37:20.861Z,19.21
2023-05-23T05:38:20.850Z,19.01
2023-05-23T05:39:20.856Z,17.47
2023-05-23T05:40:20.953Z,21.55
2023-05-23T05:41:20.822Z,22.16
2023-05-23T05:42:20.809Z,18.40
2023-05-23T05:43:20.796Z,22.97
2023-05-23T05:44:20.783Z,21.75
2023-05-23T05:45:20.772Z,25.93
2023-05-23T05:46:20.837Z,25.02
2023-05-23T05:47:20.749Z,20.54
2023-05-23T05:48:20.941Z,23.60
2023-05-23T05:49:20.729Z,22.17
2023-05-23T05:50:20.714Z,26.75
2023-05-23T05:51:20.725Z,23.19
2023-05-23T05:52:20.747Z,21.46
2023-05-23T05:53:20.679Z,22.88
2023-05-23T05:54:20.679Z,22.68
2023-05-23T05:55:20.662Z,22.99
2023-05-23T05:56:20.678Z,23.10
2023-05-23T05:57:20.643Z,21.57
2023-05-23T05:58:20.650Z,20.03
2023-05-23T05:59:20.616Z,20.65
2023-05-23T06:00:20.609Z,19.33
2023-05-23T06:01:20.609Z,24.21
2023-05-23T06:02:20.627Z,21.26
2023-05-23T06:03:20.675Z,19.94
2023-05-23T06:04:20.610Z,21.77
2023-05-23T06:05:20.566Z,21.05
2023-05-23T06:06:20.543Z,22.58
2023-05-23T06:07:20.529Z,23.90
2023-05-23T06:08:20.516Z,23.49
2023-05-23T06:09:20.503Z,23.19
2023-05-23T06:10:20.500Z,21.15
2023-05-23T06:11:20.487Z,28.78
2023-05-23T06:12:20.591Z,27.58
2023-05-23T06:13:20.457Z,25.64
2023-05-23T06:14:20.449Z,26.05
2023-05-23T06:15:20.461Z,25.95
2023-05-23T06:16:20.558Z,23.50
2023-05-23T06:17:20.469Z,22.49
2023-05-23T06:18:20.415Z,22.69
2023-05-23T06:19:20.549Z,19.63
2023-05-23T06:20:20.390Z,17.19
2023-05-23T06:21:20.370Z,21.77
2023-05-23T06:22:20.405Z,20.25
2023-05-23T06:23:20.345Z,19.64
2023-05-23T06:24:20.341Z,24.93
2023-05-23T06:25:20.342Z,22.38
2023-05-23T06:26:20.313Z,22.59
2023-05-23T06:27:20.428Z,21.67
2023-05-23T06:28:20.414Z,20.55
2023-05-23T06:29:20.279Z,21.16
2023-05-23T06:30:20.275Z,19.64
2023-05-23T06:31:20.327Z,21.16
2023-05-23T06:32:20.246Z,20.35
2023-05-23T06:33:20.246Z,20.65
2023-05-23T06:34:20.223Z,20.25
2023-05-23T06:35:20.214Z,22.49
2023-05-23T06:36:20.229Z,19.43
2023-05-23T06:37:20.226Z,26.05
2023-05-23T06:38:20.177Z,23.81
2023-05-23T06:39:20.168Z,24.93
2023-05-23T06:40:20.167Z,20.96
2023-05-23T06:41:20.145Z,21.57
2023-05-23T06:42:20.133Z,21.98
2023-05-23T06:43:20.121Z,22.79
2023-05-23T06:44:20.241Z,25.64
2023-05-23T06:45:20.110Z,23.91
2023-05-23T06:46:20.200Z,23.81
2023-05-23T06:47:20.107Z,25.64
2023-05-23T06:48:20.065Z,27.27
2023-05-23T06:49:20.169Z,28.49
2023-05-23T06:50:20.121Z,30.73
2023-05-23T06:51:20.125Z,30.32
2023-05-23T06:52:20.022Z,29.10
2023-05-23T06:53:20.030Z,24.82
2023-05-23T06:54:19.995Z,29.00
2023-05-23T06:55:19.983Z,30.42
2023-05-23T06:56:19.974Z,32.46
2023-05-23T06:57:19.968Z,30.83
2023-05-23T06:58:19.973Z,29.10
2023-05-23T06:59:19.942Z,28.28
2023-05-23T07:00:20.056Z,30.22
2023-05-23T07:01:19.946Z,29.71
2023-05-23T07:02:19.916Z,30.93
2023-05-23T07:03:19.902Z,37.65
2023-05-23T07:04:19.884Z,42.13
2023-05-23T07:05:19.913Z,34.70
2023-05-23T07:06:19.869Z,33.98
2023-05-23T07:07:19.847Z,39.48
2023-05-23T07:08:19.882Z,43.87
2023-05-23T07:09:19.842Z,37.16
2023-05-23T07:10:19.833Z,31.96
2023-05-23T07:11:19.817Z,34.81
2023-05-23T07:12:19.807Z,33.78
2023-05-23T07:13:19.781Z,38.26
2023-05-23T07:14:19.813Z,34.70
2023-05-23T07:15:19.781Z,38.06
2023-05-23T07:16:19.990Z,37.65
2023-05-23T07:17:19.875Z,41.92
2023-05-23T07:18:19.731Z,39.40
2023-05-23T07:19:19.747Z,36.65
2023-05-23T07:20:19.709Z,36.95
2023-05-23T07:21:19.692Z,34.10
2023-05-23T07:22:19.686Z,47.13
2023-05-23T07:23:19.666Z,39.82
2023-05-23T07:24:19.670Z,40.43
2023-05-23T07:25:19.646Z,43.49
2023-05-23T07:26:19.645Z,40.84
2023-05-23T07:27:19.625Z,39.21
2023-05-23T07:28:19.616Z,38.60
2023-05-23T07:29:19.603Z,38.80
2023-05-23T07:30:19.588Z,39.19
2023-05-23T07:31:19.617Z,35.02
2023-05-23T07:32:19.585Z,36.04
2023-05-23T07:33:19.555Z,35.42
2023-05-23T07:34:19.543Z,34.51
2023-05-23T07:35:19.577Z,34.81
2023-05-23T07:36:19.583Z,37.16
2023-05-23T07:37:19.513Z,43.29
2023-05-23T07:38:19.497Z,45.01
2023-05-23T07:39:19.491Z,42.37
2023-05-23T07:40:19.477Z,42.80
2023-05-23T07:41:19.469Z,40.55
2023-05-23T07:42:19.450Z,40.03
2023-05-23T07:43:19.443Z,37.27
2023-05-23T07:44:20.204Z,36.66
2023-05-23T07:45:19.416Z,36.97
2023-05-23T07:46:19.432Z,35.95
2023-05-23T07:47:19.399Z,40.45
2023-05-23T07:48:19.412Z,38.42
2023-05-23T07:49:19.382Z,37.60
2023-05-23T07:50:19.361Z,37.80
2023-05-23T07:51:19.365Z,39.84
2023-05-23T07:52:19.339Z,42.49
2023-05-23T07:53:19.332Z,37.80
2023-05-23T07:54:19.324Z,37.68
2023-05-23T07:55:19.314Z,37.38
2023-05-23T07:56:19.292Z,39.43
2023-05-23T07:57:19.292Z,33.30
2023-05-23T07:58:19.271Z,41.55
2023-05-23T07:59:19.268Z,32.79
2023-05-23T08:00:19.252Z,34.12
2023-05-23T08:01:19.254Z,33.40
2023-05-23T08:02:19.254Z,35.14
2023-05-23T08:03:19.343Z,37.48
2023-05-23T08:04:19.352Z,40.45
2023-05-23T08:05:19.195Z,39.11
2023-05-23T08:06:19.181Z,36.66
2023-05-23T08:07:19.573Z,34.83
2023-05-23T08:08:19.160Z,30.15
2023-05-23T08:09:19.149Z,29.94
2023-05-23T08:10:19.135Z,30.04
2023-05-23T08:11:19.124Z,34.22
2023-05-23T08:12:19.117Z,36.47
2023-05-23T08:13:19.103Z,36.38
2023-05-23T08:14:19.098Z,28.53
2023-05-23T08:15:19.082Z,32.30
2023-05-23T08:16:19.122Z,31.79
2023-05-23T08:17:19.136Z,36.07
2023-05-23T08:18:19.055Z,34.64
2023-05-23T08:19:19.083Z,34.13
2023-05-23T08:20:19.054Z,38.72
2023-05-23T08:21:19.041Z,42.82
2023-05-23T08:22:19.002Z,34.13
2023-05-23T08:23:19.004Z,40.45
2023-05-23T08:24:19.013Z,46.08
2023-05-23T08:25:18.977Z,45.87
2023-05-23T08:26:18.974Z,45.36
2023-05-23T08:27:18.955Z,37.49
2023-05-23T08:28:18.944Z,42.18
2023-05-23T08:29:18.935Z,42.80
2023-05-23T08:30:18.917Z,47.26
2023-05-23T08:31:18.916Z,53.47
2023-05-23T08:32:18.960Z,57.34
2023-05-23T08:33:18.898Z,55.41
2023-05-23T08:34:18.879Z,59.07
2023-05-23T08:35:18.860Z,59.10
2023-05-23T08:36:18.871Z,59.30
2023-05-23T08:37:18.842Z,50.42
2023-05-23T08:38:18.845Z,57.65
2023-05-23T08:39:18.815Z,62.56
2023-05-23T08:40:18.803Z,58.80
2023-05-23T08:41:18.794Z,58.18
2023-05-23T08:42:18.836Z,53.50
2023-05-23T08:43:18.774Z,55.84
2023-05-23T08:44:18.770Z,65.42
2023-05-23T08:45:18.773Z,64.29
2023-05-23T08:46:18.788Z,61.65
2023-05-23T08:47:18.726Z,67.55
2023-05-23T08:48:18.714Z,66.85
2023-05-23T08:49:18.700Z,64.40
2023-05-23T08:50:21.173Z,66.23
2023-05-23T08:51:18.692Z,74.90
2023-05-23T08:52:18.688Z,72.04
2023-05-23T08:53:18.655Z,77.34
2023-05-23T08:54:18.644Z,78.46
2023-05-23T08:55:18.642Z,75.98
2023-05-23T08:56:18.625Z,74.25
2023-05-23T08:57:18.611Z,85.75
2023-05-23T08:58:18.614Z,83.96
2023-05-23T08:59:18.583Z,87.94
2023-05-23T09:00:18.583Z,85.49
2023-05-23T09:01:18.688Z,81.62
2023-05-23T09:02:18.567Z,76.83
2023-05-23T09:03:18.559Z,83.65
2023-05-23T09:04:18.541Z,80.29
2023-05-23T09:05:18.561Z,85.60
2023-05-23T09:06:18.517Z,86.15
2023-05-23T09:07:18.497Z,81.45
2023-05-23T09:08:18.515Z,85.02
2023-05-23T09:09:18.479Z,86.92
2023-05-23T09:10:18.477Z,95.01
2023-05-23T09:11:18.455Z,88.59
2023-05-23T09:12:18.458Z,89.81
2023-05-23T09:13:18.430Z,91.03
2023-05-23T09:14:18.429Z,91.35
2023-05-23T09:15:18.408Z,88.65
2023-05-23T09:16:18.454Z,88.34
2023-05-23T09:17:18.387Z,90.89
2023-05-23T09:18:18.371Z,90.24
2023-05-23T09:19:18.390Z,93.90
2023-05-23T09:20:18.377Z,96.35
2023-05-23T09:21:18.344Z,99.25
2023-05-23T09:22:18.335Z,99.76
2023-05-23T09:23:18.318Z,99.30
2023-05-23T09:24:18.330Z,99.99
2023-05-23T09:25:18.308Z,99.99
2023-05-23T09:26:18.284Z,99.99
2023-05-23T09:27:18.273Z,99.99
2023-05-23T09:28:18.260Z,99.99
2023-05-23T09:29:18.270Z,99.99
2023-05-23T09:30:18.284Z,99.99
2023-05-23T09:31:18.257Z,99.99
2023-05-23T09:32:18.217Z,99.99
2023-05-23T09:33:18.244Z,99.99
2023-05-23T09:34:18.193Z,99.99
2023-05-23T09:35:18.276Z,99.99
2023-05-23T09:36:18.186Z,99.99
2023-05-23T09:37:18.173Z,99.99
2023-05-23T09:38:18.154Z,99.99
2023-05-23T09:39:18.148Z,99.99
2023-05-23T09:40:18.232Z,99.99
2023-05-23T09:41:18.115Z,99.99
2023-05-23T09:42:18.102Z,99.99
2023-05-23T09:43:18.098Z,99.99
2023-05-23T09:44:18.098Z,99.99
2023-05-23T09:45:18.086Z,99.99
2023-05-23T09:46:18.065Z,99.99
2023-05-23T09:47:18.410Z,99.99
2023-05-23T09:48:18.035Z,99.99
2023-05-23T09:49:18.071Z,99.99
2023-05-23T09:50:18.063Z,99.99
2023-05-23T09:51:18.002Z,99.99
2023-05-23T09:52:17.989Z,99.99
2023-05-23T09:53:17.982Z,99.99
2023-05-23T09:54:17.971Z,99.99
2023-05-23T09:55:17.958Z,99.99
2023-05-23T09:56:17.989Z,99.99
2023-05-23T09:57:17.946Z,99.99
2023-05-23T09:58:17.922Z,99.99
2023-05-23T09:59:17.910Z,99.99
2023-05-23T10:00:17.909Z,99.99
2023-05-23T10:01:18.043Z,99.99
2023-05-23T10:02:17.876Z,99.99
2023-05-23T10:03:17.868Z,99.99
2023-05-23T10:04:17.926Z,99.99
2023-05-23T10:05:17.841Z,99.99
2023-05-23T10:06:17.848Z,99.99
2023-05-23T10:07:17.834Z,99.99
2023-05-23T10:08:17.821Z,99.99
2023-05-23T10:09:17.813Z,99.99
2023-05-23T10:10:17.795Z,99.99
2023-05-23T10:11:17.784Z,99.99
2023-05-23T10:12:17.805Z,99.99
2023-05-23T10:13:17.771Z,99.99
2023-05-23T10:14:17.749Z,99.99
2023-05-23T10:15:17.746Z,99.99
2023-05-23T10:16:17.767Z,99.99
2023-05-23T10:17:17.823Z,99.99
2023-05-23T10:18:17.703Z,99.99
2023-05-23T10:19:17.793Z,99.99
2023-05-23T10:20:17.720Z,99.99
2023-05-23T10:21:17.672Z,99.99
2023-05-23T10:22:17.666Z,99.99
2023-05-23T10:23:17.666Z,99.99
2023-05-23T10:24:17.654Z,99.99
2023-05-23T10:25:17.626Z,99.99
2023-05-23T10:26:17.615Z,99.99
2023-05-23T10:27:17.609Z,99.99
2023-05-23T10:28:17.629Z,99.99
2023-05-23T10:29:17.581Z,99.99
2023-05-23T10:30:17.572Z,99.99
2023-05-23T10:31:17.596Z,99.99
2023-05-23T10:32:17.548Z,99.99
2023-05-23T10:33:17.576Z,99.99
2023-05-23T10:34:17.525Z,99.99
2023-05-23T10:35:17.535Z,99.99
2023-05-23T10:36:17.510Z,99.99
2023-05-23T10:37:17.512Z,99.99
2023-05-23T10:38:17.476Z,99.99
2023-05-23T10:39:17.475Z,99.99
2023-05-23T10:40:17.462Z,99.99
2023-05-23T10:41:17.447Z,99.99
2023-05-23T10:42:17.429Z,99.99
2023-05-23T10:43:17.430Z,99.99
2023-05-23T10:44:17.436Z,99.99
2023-05-23T10:45:17.399Z,99.99
2023-05-23T10:46:17.481Z,99.99
2023-05-23T10:47:17.474Z,99.99
2023-05-23T10:48:17.366Z,99.99
2023-05-23T10:49:17.359Z,99.99
2023-05-23T10:50:17.349Z,99.99
2023-05-23T10:51:17.338Z,99.99
2023-05-23T10:52:17.339Z,99.99
2023-05-23T10:53:17.309Z,99.99
2023-05-23T10:54:17.298Z,99.99
2023-05-23T10:55:17.287Z,99.99
2023-05-23T10:56:17.285Z,99.99
2023-05-23T10:57:17.288Z,99.99
2023-05-23T10:58:17.258Z,99.99
2023-05-23T10:59:17.244Z,99.99
2023-05-23T11:00:17.327Z,99.99
2023-05-23T11:01:17.227Z,99.99
2023-05-23T11:02:17.291Z,99.99
2023-05-23T11:03:17.367Z,99.99
2023-05-23T11:04:17.280Z,99.99
2023-05-23T11:05:17.195Z,99.99
2023-05-23T11:06:17.166Z,99.99
2023-05-23T11:07:17.155Z,99.99
2023-05-23T11:08:17.150Z,99.99
2023-05-23T11:09:17.154Z,99.99
2023-05-23T11:10:17.147Z,99.99
2023-05-23T11:11:17.149Z,99.99
2023-05-23T11:12:17.098Z,99.99
2023-05-23T11:13:17.086Z,99.99
2023-05-23T11:14:17.087Z,99.99
2023-05-23T11:15:17.085Z,99.99
2023-05-23T11:16:17.154Z,99.99
2023-05-23T11:17:17.046Z,99.99
2023-05-23T11:18:17.038Z,99.99
2023-05-23T11:19:17.116Z,99.99
2023-05-23T11:20:17.081Z,99.99
2023-05-23T11:21:17.011Z,99.99
2023-05-23T11:22:17.008Z,99.99
2023-05-23T11:23:17.002Z,99.99
2023-05-23T11:24:16.967Z,99.99
2023-05-23T11:25:16.965Z,99.99
2023-05-23T11:26:16.945Z,99.99
2023-05-23T11:27:16.944Z,99.99
2023-05-23T11:28:16.953Z,99.99
2023-05-23T11:29:16.917Z,99.83
2023-05-23T11:30:16.901Z,98.41
2023-05-23T11:31:16.915Z,98.47
2023-05-23T11:32:17.937Z,99.99
2023-05-23T11:33:16.916Z,99.57
2023-05-23T11:34:16.863Z,98.86
2023-05-23T11:35:16.859Z,99.98
2023-05-23T11:36:16.938Z,98.81
2023-05-23T11:37:16.836Z,99.21
2023-05-23T11:38:16.821Z,98.82
2023-05-23T11:39:16.805Z,95.10
2023-05-23T11:40:16.796Z,92.27
2023-05-23T11:41:16.794Z,92.30
2023-05-23T11:42:16.773Z,94.02
2023-05-23T11:43:16.869Z,96.25
2023-05-23T11:44:16.749Z,95.14
2023-05-23T11:45:16.747Z,95.89
2023-05-23T11:46:16.725Z,97.50
2023-05-23T11:47:16.832Z,98.16
2023-05-23T11:48:17.017Z,97.10
2023-05-23T11:49:16.694Z,99.12
2023-05-23T11:50:16.692Z,99.42
2023-05-23T11:51:16.680Z,97.86
2023-05-23T11:52:16.663Z,97.47
2023-05-23T11:53:16.651Z,96.41
2023-05-23T11:54:16.645Z,94.00
2023-05-23T11:55:16.631Z,93.60
2023-05-23T11:56:16.637Z,93.60
2023-05-23T11:57:16.609Z,94.55
2023-05-23T11:58:16.594Z,92.47
2023-05-23T11:59:16.587Z,92.33
2023-05-23T12:00:16.585Z,90.98
2023-05-23T12:01:16.572Z,91.02
2023-05-23T12:02:16.592Z,91.82
2023-05-23T12:03:16.915Z,93.07
2023-05-23T12:04:16.718Z,94.23
2023-05-23T12:05:16.528Z,94.78
2023-05-23T12:06:16.522Z,94.87
2023-05-23T12:07:16.540Z,95.54
2023-05-23T12:08:16.499Z,95.19
2023-05-23T12:09:16.473Z,96.25
2023-05-23T12:10:16.474Z,96.36
2023-05-23T12:11:16.543Z,95.35
2023-05-23T12:12:16.537Z,93.73
2023-05-23T12:13:16.557Z,95.23
2023-05-23T12:14:16.601Z,95.78
2023-05-23T12:15:16.536Z,96.50
2023-05-23T12:16:16.563Z,93.18
2023-05-23T12:17:16.423Z,92.79
2023-05-23T12:18:16.382Z,90.33
2023-05-23T12:19:16.394Z,89.47
2023-05-23T12:20:16.482Z,90.07
2023-05-23T12:21:16.342Z,92.13
2023-05-23T12:22:16.335Z,93.08
2023-05-23T12:23:16.319Z,94.59
2023-05-23T12:24:16.305Z,93.38
2023-05-23T12:25:16.294Z,92.82
2023-05-23T12:26:16.300Z,93.01
2023-05-23T12:27:16.274Z,93.92
2023-05-23T12:28:16.262Z,93.84
2023-05-23T12:29:16.253Z,93.08
2023-05-23T12:30:16.316Z,92.13
2023-05-23T12:31:16.260Z,92.32
2023-05-23T12:32:16.226Z,92.62
2023-05-23T12:33:16.249Z,94.04
2023-05-23T12:34:16.201Z,92.98
2023-05-23T12:35:16.188Z,92.47
2023-05-23T12:36:16.203Z,91.13
2023-05-23T12:37:19.606Z,92.38
2023-05-23T12:38:16.161Z,91.71
2023-05-23T12:39:16.150Z,92.47
2023-05-23T12:40:16.161Z,92.42
2023-05-23T12:41:16.123Z,92.88
2023-05-23T12:42:16.111Z,92.18
2023-05-23T12:43:16.099Z,93.18
2023-05-23T12:44:16.093Z,92.62
2023-05-23T12:45:16.080Z,92.58
2023-05-23T12:46:16.070Z,91.27
2023-05-23T12:47:16.165Z,90.77
2023-05-23T12:48:16.084Z,90.22
2023-05-23T12:49:16.037Z,0.00
2023-05-23T12:50:16.027Z,87.87
2023-05-23T12:51:16.008Z,88.25
2023-05-23T12:52:16.053Z,87.39